Nearby METAR Reports

 

KSJC - San Jose, California, USA
Distance from station: NE 9mi, 14km
Updated: Sat, 08-Aug-2020 12:53pm EDT
Clear
Clear
 Wind from SSE
Wind: SSE 5 mph , 7 km/h
Temperature: 68°F , 20°C
Dew Point: 54°F , 12°C
Humidity: 60%
Barometer: 29.97 inHg , 1014.9 hPa
Clouds: Clear
Visibility: 10 miles , 16 km
2020/08/08 16:53 KSJC 081653Z 16004KT 10SM CLR 20/12 A2997 RMK AO2 SLP147 T02000117
KNUQ - Moffett Nas/Mtn, California, USA
Distance from station: N 9mi, 14km
Updated: Sat, 08-Aug-2020 9:55am EDT
NOT Current
Partly cloudy
Partly cloudy
 Wind from SE
Wind: SE 5 mph , 7 km/h
Temperature: 59°F , 15°C
Dew Point: 55°F , 13°C
Humidity: 88%
Barometer: 29.96 inHg , 1014.6 hPa
Clouds: Partly cloudy
Visibility: 9 miles , 14 km
Cloud details: Partly cloudy 1000 ft
2020/08/08 13:55 KNUQ 081355Z AUTO 13004KT 9SM SCT010 15/13 A2996 RMK AO2
 
KPAO - Palo Alto, California, USA
Distance from station: NNW 14mi, 23km
Updated: Sat, 08-Aug-2020 11:47am EDT
NOT Current
Partly cloudy
Partly cloudy
 Wind from calm
Wind: Calm
Temperature: 64°F , 18°C
Dew Point: 59°F , 15°C
Humidity: 83%
Barometer: 29.98 inHg , 1015.2 hPa
Clouds: Partly cloudy
Visibility: 10 miles , 16 km
Cloud details: Partly cloudy 1100 ft
2020/08/08 15:47 KPAO 081547Z 00000KT 10SM SCT011 18/15 A2998
KRHV - San Jose/Reid, California, USA
Distance from station: ENE 12mi, 19km
Updated: Sat, 08-Aug-2020 12:47pm EDT
Clear
Clear
 Wind from calm
Wind: Calm
Temperature: 68°F , 20°C
Dew Point: 55°F , 13°C
Humidity: 64%
Barometer: 29.97 inHg , 1014.9 hPa
Clouds: Clear
Visibility: 10 miles , 16 km
2020/08/08 16:47 KRHV 081647Z 00000KT 10SM SKC 20/13 A2997
 
KOAK - Oakland, California, USA
Distance from station: NNW 31mi, 50km
Updated: Sat, 08-Aug-2020 12:53pm EDT
Partly cloudy
Partly cloudy
 Wind from W
Wind: W 6 mph , 9 km/h
Temperature: 66°F , 19°C
Dew Point: 57°F , 14°C
Humidity: 73%
Barometer: 29.98 inHg , 1015.2 hPa
Clouds: Partly cloudy
Visibility: 10 miles , 16 km
Cloud details: Partly cloudy 1000 ft
2020/08/08 16:53 KOAK 081653Z 26005KT 10SM SCT010 19/14 A2998 RMK AO2 SLP151 T01940139
KSQL - San Carlos Airpo, California, USA
Distance from station: NW 21mi, 34km
Updated: Sat, 08-Aug-2020 12:47pm EDT
Few Clouds
Few Clouds
 Wind from calm
Wind: Calm
Temperature: 66°F , 19°C
Dew Point: 59°F , 15°C
Humidity: 78%
Barometer: 29.99 inHg , 1015.6 hPa
Clouds: Few Clouds
Visibility: 10 miles , 16 km
Cloud details: Few Clouds 1400 ft
2020/08/08 16:47 KSQL 081647Z 00000KT 10SM FEW014 19/15 A2999
 
KSFO - San Francisco, California, USA
Distance from station: NW 30mi, 49km
Updated: Sat, 08-Aug-2020 12:56pm EDT
Partly cloudy
Partly cloudy
 Wind from NE
Wind: NE 6 mph , 9 km/h
Temperature: 66°F , 19°C
Dew Point: 57°F , 14°C
Humidity: 73%
Barometer: 29.97 inHg , 1014.9 hPa
Clouds: Partly cloudy
Visibility: 10 miles , 16 km
Cloud details: Few Clouds 800 ft
Partly cloudy 1400 ft
2020/08/08 16:56 KSFO 081656Z 05005KT 10SM FEW008 SCT014 19/14 A2997 RMK AO2 SLP149 T01890139
KE16 - San Martin, California, USA
Distance from station: ESE 27mi, 43km
Updated: Sat, 08-Aug-2020 12:50pm EDT
Few Clouds
Few Clouds
 Wind from SE
Wind: SE 9 mph , 15 km/h
Temperature: 61°F , 16°C
Dew Point: 55°F , 13°C
Humidity: 83%
Barometer: 30.01 inHg , 1016.3 hPa
Clouds: Few Clouds
Visibility: 9 miles , 14 km
Cloud details: Few Clouds 1000 ft
2020/08/08 16:50 KE16 081650Z AUTO 13008KT 9SM FEW010 16/13 A3001 RMK AO2 PWINO PNO
 
KWVI - Watsonville, California, USA
Distance from station: SSE 27mi, 44km
Updated: Sat, 08-Aug-2020 12:53pm EDT
Overcast
Overcast
 Wind from W
Wind: W 5 mph , 7 km/h
Temperature: 109°F , 43°C
Dew Point: 55°F , 13°C
Humidity: 17%
Barometer: 30.02 inHg , 1016.6 hPa
Clouds: Overcast
Visibility: 10 miles , 16 km
Cloud details: Overcast 600 ft
2020/08/08 16:53 KWVI 081653Z AUTO 26004KT 10SM OVC006 43/13 A3002 RMK AO2 SLP162 T04330133 $
KHAF - Half Moon Bay, California, USA
Distance from station: WNW 31mi, 50km
Updated: Sat, 08-Aug-2020 12:55pm EDT
Mist, Overcast
Mist, Overcast
 Wind from S
Wind: S 13 mph , 20 km/h
Temperature: 57°F , 14°C
Dew Point: 55°F , 13°C
Humidity: 94%
Barometer: 30.01 inHg , 1016.3 hPa
Summary: Mist
Clouds: Overcast
Visibility: 5 miles , 8 km
Cloud details: Overcast 400 ft
2020/08/08 16:55 KHAF 081655Z AUTO 17011KT 5SM BR OVC004 14/13 A3001 RMK AO2
 
KHWD - Hayward, California, USA
Distance from station: N 28mi, 44km
Updated: Sat, 08-Aug-2020 12:54pm EDT
Clear
Clear
 Wind from W
Wind: W 7 mph , 11 km/h
Temperature: 70°F , 21°C
Dew Point: 57°F , 14°C
Humidity: 64%
Barometer: 29.97 inHg , 1014.9 hPa
Clouds: Clear
Visibility: 10 miles , 16 km
2020/08/08 16:54 KHWD 081654Z 28006KT 10SM CLR 21/14 A2997 RMK AO2 SLP158 T02060139
KLVK - Livermore, California, USA
Distance from station: NNE 31mi, 51km
Updated: Sat, 08-Aug-2020 12:53pm EDT
Clear
Clear
 Wind from calm
Wind: Calm
Temperature: 72°F , 22°C
Dew Point: 54°F , 12°C
Humidity: 53%
Barometer: 29.95 inHg , 1014.2 hPa
Clouds: Clear
Visibility: 10 miles , 16 km
2020/08/08 16:53 KLVK 081653Z 00000KT 10SM CLR 22/12 A2995 RMK AO2 SLP139 T02220122